createdAt,value
2023-05-17T00:00:18.405Z,99.90
2023-05-17T00:02:45.475Z,99.90
2023-05-17T00:05:12.528Z,99.90
2023-05-17T00:07:39.578Z,99.90
2023-05-17T00:10:07.335Z,99.90
2023-05-17T00:12:34.849Z,99.90
2023-05-17T00:15:02.163Z,99.90
2023-05-17T00:17:29.751Z,99.90
2023-05-17T00:19:56.997Z,99.90
2023-05-17T00:22:24.171Z,99.90
2023-05-17T00:24:51.282Z,99.90
2023-05-17T00:27:18.342Z,99.90
2023-05-17T00:29:45.479Z,99.90
2023-05-17T00:32:13.866Z,99.90
2023-05-17T00:34:41.003Z,99.90
2023-05-17T00:37:08.191Z,99.90
2023-05-17T00:39:35.269Z,99.90
2023-05-17T00:42:02.300Z,99.90
2023-05-17T00:44:31.551Z,99.90
2023-05-17T00:47:00.104Z,99.90
2023-05-17T00:49:27.626Z,99.90
2023-05-17T00:51:55.915Z,99.90
2023-05-17T00:54:23.977Z,99.90
2023-05-17T00:56:53.758Z,99.90
2023-05-17T00:59:23.472Z,99.90
2023-05-17T01:01:52.883Z,99.90
2023-05-17T01:04:21.035Z,99.90
2023-05-17T01:06:49.630Z,99.90
2023-05-17T01:09:18.227Z,99.90
2023-05-17T01:12:06.025Z,99.90
2023-05-17T01:15:08.412Z,99.90
2023-05-17T01:17:54.578Z,99.90
2023-05-17T01:20:28.744Z,99.90
2023-05-17T01:23:20.479Z,99.90
2023-05-17T01:25:51.136Z,99.90
2023-05-17T01:28:20.518Z,99.90
2023-05-17T01:30:50.257Z,99.90
2023-05-17T01:33:18.948Z,99.90
2023-05-17T01:35:46.083Z,99.90
2023-05-17T01:38:13.232Z,99.90
2023-05-17T01:40:48.442Z,99.90
2023-05-17T01:43:29.046Z,99.90
2023-05-17T01:46:22.508Z,99.90
2023-05-17T01:49:14.173Z,99.90
2023-05-17T01:52:08.167Z,99.90
2023-05-17T01:54:41.717Z,99.90
2023-05-17T01:57:10.088Z,99.90
2023-05-17T01:59:40.242Z,99.90
2023-05-17T02:02:09.145Z,99.90
2023-05-17T02:04:36.956Z,99.90
2023-05-17T02:07:04.272Z,99.90
2023-05-17T02:09:31.531Z,99.90
2023-05-17T02:11:58.661Z,99.90
2023-05-17T02:14:25.702Z,99.90
2023-05-17T02:16:52.813Z,99.90
2023-05-17T02:19:20.141Z,99.90
2023-05-17T02:21:47.299Z,99.90
2023-05-17T02:24:14.323Z,99.90
2023-05-17T02:26:43.454Z,99.90
2023-05-17T02:29:11.432Z,99.90
2023-05-17T02:31:38.459Z,99.90
2023-05-17T02:34:08.029Z,99.90
2023-05-17T02:36:35.461Z,99.90
2023-05-17T02:39:02.464Z,99.90
2023-05-17T02:41:29.557Z,99.90
2023-05-17T02:43:58.298Z,99.90
2023-05-17T02:46:27.001Z,99.90
2023-05-17T02:48:54.023Z,99.90
2023-05-17T02:51:24.061Z,99.90
2023-05-17T02:53:51.618Z,99.90
2023-05-17T02:56:19.021Z,99.90
2023-05-17T02:58:46.259Z,99.90
2023-05-17T03:01:13.724Z,99.90
2023-05-17T03:03:40.975Z,99.90
2023-05-17T03:06:08.265Z,99.90
2023-05-17T03:08:35.601Z,99.90
2023-05-17T03:11:04.085Z,99.90
2023-05-17T03:13:31.740Z,99.90
2023-05-17T03:15:58.850Z,99.90
2023-05-17T03:18:26.829Z,99.90
2023-05-17T03:20:53.985Z,99.90
2023-05-17T03:23:21.809Z,99.90
2023-05-17T03:25:54.872Z,99.90
2023-05-17T03:28:22.107Z,99.90
2023-05-17T03:30:49.472Z,99.90
2023-05-17T03:33:16.896Z,99.90
2023-05-17T03:35:44.198Z,99.90
2023-05-17T03:38:11.226Z,99.90
2023-05-17T03:40:39.667Z,99.90
2023-05-17T03:43:07.379Z,99.90
2023-05-17T03:45:34.918Z,99.90
2023-05-17T03:48:02.034Z,99.90
2023-05-17T03:50:30.049Z,99.90
2023-05-17T03:52:57.118Z,99.90
2023-05-17T03:55:24.316Z,99.90
2023-05-17T03:57:51.450Z,99.90
2023-05-17T04:00:22.189Z,99.90
2023-05-17T04:02:51.066Z,99.90
2023-05-17T04:05:19.917Z,99.90
2023-05-17T04:07:48.475Z,99.90
2023-05-17T04:10:15.644Z,99.90
2023-05-17T04:12:42.675Z,99.90
2023-05-17T04:15:10.230Z,99.90
2023-05-17T04:17:42.155Z,99.90
2023-05-17T04:20:10.326Z,99.90
2023-05-17T04:22:40.502Z,99.90
2023-05-17T04:25:10.640Z,99.90
2023-05-17T04:27:38.372Z,99.90
2023-05-17T04:30:08.265Z,99.90
2023-05-17T04:32:36.121Z,99.90
2023-05-17T04:35:03.706Z,99.90
2023-05-17T04:37:31.180Z,99.90
2023-05-17T04:40:03.173Z,99.90
2023-05-17T04:42:32.474Z,99.90
2023-05-17T04:45:00.197Z,99.90
2023-05-17T04:47:29.675Z,99.90
2023-05-17T04:49:57.723Z,99.90
2023-05-17T04:52:25.106Z,99.90
2023-05-17T04:54:52.851Z,99.90
2023-05-17T04:57:21.896Z,99.90
2023-05-17T04:59:58.436Z,99.90
2023-05-17T05:02:26.688Z,99.90
2023-05-17T05:04:53.908Z,99.90
2023-05-17T05:07:21.842Z,99.90
2023-05-17T05:09:48.924Z,99.90
2023-05-17T05:12:17.126Z,99.90
2023-05-17T05:14:44.313Z,99.90
2023-05-17T05:17:11.605Z,99.90
2023-05-17T05:19:41.008Z,99.90
2023-05-17T05:22:08.720Z,99.90
2023-05-17T05:24:38.030Z,99.90
2023-05-17T05:27:07.037Z,99.90
2023-05-17T05:29:34.342Z,99.90
2023-05-17T05:32:01.392Z,99.90
2023-05-17T05:34:29.753Z,99.90
2023-05-17T05:36:56.780Z,99.90
2023-05-17T05:39:24.001Z,99.90
2023-05-17T05:41:52.216Z,99.90
2023-05-17T05:44:19.966Z,99.90
2023-05-17T05:46:51.608Z,99.90
2023-05-17T05:49:19.234Z,99.90
2023-05-17T05:51:46.194Z,99.90
2023-05-17T05:54:14.239Z,99.90
2023-05-17T05:56:41.432Z,99.90
2023-05-17T05:59:11.702Z,99.90
2023-05-17T06:01:39.626Z,99.90
2023-05-17T06:04:06.867Z,99.90
2023-05-17T06:06:34.116Z,99.90
2023-05-17T06:09:01.299Z,99.90
2023-05-17T06:11:28.314Z,99.90
2023-05-17T06:13:55.409Z,99.90
2023-05-17T06:16:22.444Z,99.90
2023-05-17T06:18:51.272Z,96.00
2023-05-17T06:21:18.753Z,89.70
2023-05-17T06:23:45.805Z,79.00
2023-05-17T06:26:12.840Z,71.20
2023-05-17T06:28:40.188Z,65.00
2023-05-17T06:31:07.429Z,68.80
2023-05-17T06:33:34.459Z,67.20
2023-05-17T06:38:28.481Z,61.80
2023-05-17T06:40:58.869Z,61.30
2023-05-17T06:43:26.028Z,49.50
2023-05-17T06:45:53.396Z,54.60
2023-05-17T06:48:20.583Z,50.40
2023-05-17T06:50:47.737Z,52.30
2023-05-17T06:53:14.849Z,55.70
2023-05-17T06:55:43.312Z,57.00
2023-05-17T06:58:10.606Z,52.00
2023-05-17T07:00:37.621Z,55.10
2023-05-17T07:03:07.418Z,63.70
2023-05-17T07:05:34.663Z,66.00
2023-05-17T07:08:02.010Z,61.10
2023-05-17T07:10:29.154Z,71.80
2023-05-17T07:12:56.775Z,61.80
2023-05-17T07:15:23.831Z,71.80
2023-05-17T07:17:51.232Z,74.00
2023-05-17T07:20:18.284Z,65.90
2023-05-17T07:22:45.336Z,75.50
2023-05-17T07:25:12.585Z,75.70
2023-05-17T07:27:39.716Z,75.80
2023-05-17T07:30:07.807Z,72.10
2023-05-17T07:32:34.860Z,80.30
2023-05-17T07:35:04.315Z,85.30
2023-05-17T07:37:31.387Z,79.10
2023-05-17T07:39:58.400Z,74.70
2023-05-17T07:42:27.859Z,78.10
2023-05-17T07:44:54.873Z,72.80
2023-05-17T07:47:21.874Z,77.20
2023-05-17T07:49:48.864Z,76.50
2023-05-17T07:52:15.859Z,83.40
2023-05-17T07:54:43.003Z,79.40
2023-05-17T07:57:10.039Z,80.40
2023-05-17T07:59:40.330Z,78.30
2023-05-17T08:02:07.608Z,76.90
2023-05-17T08:04:34.812Z,77.00
2023-05-17T08:07:02.288Z,74.90
2023-05-17T08:09:29.372Z,72.60
2023-05-17T08:11:56.376Z,80.80
2023-05-17T08:14:24.832Z,80.30
2023-05-17T08:16:52.085Z,72.60
2023-05-17T08:19:19.655Z,76.80
2023-05-17T08:21:47.464Z,77.20
2023-05-17T08:24:14.536Z,78.70
2023-05-17T08:26:41.700Z,80.30
2023-05-17T08:29:08.780Z,81.60
2023-05-17T08:31:36.048Z,79.40
2023-05-17T08:34:03.603Z,76.10
2023-05-17T08:36:30.718Z,78.30
2023-05-17T08:39:00.427Z,77.70
2023-05-17T08:41:27.874Z,84.40
2023-05-17T08:43:57.081Z,83.30
2023-05-17T08:46:25.828Z,78.70
2023-05-17T08:48:56.298Z,76.70
2023-05-17T08:51:23.506Z,76.90
2023-05-17T08:53:51.009Z,64.60
2023-05-17T08:56:20.952Z,75.10
2023-05-17T08:58:57.107Z,83.40
2023-05-17T09:01:26.729Z,84.10
2023-05-17T09:03:54.780Z,89.90
2023-05-17T09:06:23.115Z,81.40
2023-05-17T09:08:58.686Z,62.70
2023-05-17T09:11:30.328Z,76.90
2023-05-17T09:14:07.405Z,87.80
2023-05-17T09:16:36.487Z,87.80
2023-05-17T09:19:08.573Z,83.00
2023-05-17T09:21:37.142Z,89.10
2023-05-17T09:24:07.888Z,90.50
2023-05-17T09:26:44.633Z,86.40
2023-05-17T09:29:16.078Z,82.70
2023-05-17T09:31:44.124Z,60.70
2023-05-17T09:34:12.069Z,87.00
2023-05-17T09:36:43.616Z,86.10
2023-05-17T09:39:13.476Z,90.00
2023-05-17T09:41:47.381Z,80.80
2023-05-17T09:44:15.807Z,55.30
2023-05-17T09:46:45.531Z,61.00
2023-05-17T09:49:14.045Z,76.40
2023-05-17T09:51:43.543Z,67.30
2023-05-17T09:54:11.166Z,80.00
2023-05-17T09:56:38.651Z,83.90
2023-05-17T09:59:12.341Z,83.90
2023-05-17T10:01:41.838Z,83.20
2023-05-17T10:04:11.280Z,65.30
2023-05-17T10:06:49.630Z,75.60
2023-05-17T10:09:21.904Z,76.10
2023-05-17T10:11:51.109Z,74.60
2023-05-17T10:14:19.148Z,83.20
2023-05-17T10:16:47.193Z,81.10
2023-05-17T10:19:15.115Z,81.50
2023-05-17T10:21:43.454Z,76.70
2023-05-17T10:24:12.384Z,83.80
2023-05-17T10:26:40.285Z,79.10
2023-05-17T10:29:08.040Z,74.60
2023-05-17T10:31:36.782Z,83.60
2023-05-17T10:34:07.095Z,69.80
2023-05-17T10:36:34.540Z,71.80
2023-05-17T10:39:03.030Z,58.80
2023-05-17T10:41:34.185Z,64.70
2023-05-17T10:44:08.121Z,68.70
2023-05-17T10:46:36.490Z,71.40
2023-05-17T10:49:04.331Z,78.20
2023-05-17T10:51:33.666Z,74.40
2023-05-17T10:54:12.041Z,77.20
2023-05-17T10:56:47.791Z,72.30
2023-05-17T10:59:22.932Z,69.00
2023-05-17T11:02:10.301Z,67.50
2023-05-17T11:04:43.451Z,60.90
2023-05-17T11:07:27.235Z,70.30
2023-05-17T11:10:00.702Z,64.30
2023-05-17T11:12:58.244Z,68.50
2023-05-17T11:15:28.878Z,70.50
2023-05-17T11:17:58.420Z,79.50
2023-05-17T11:20:25.662Z,71.50
2023-05-17T11:23:07.212Z,50.90
2023-05-17T11:25:36.490Z,73.50
2023-05-17T11:28:20.207Z,71.90
2023-05-17T11:30:54.214Z,70.50
2023-05-17T11:33:44.993Z,69.70
2023-05-17T11:36:20.727Z,77.60
2023-05-17T11:39:09.130Z,73.20
2023-05-17T11:41:41.724Z,50.70
2023-05-17T11:44:10.269Z,65.60
2023-05-17T11:46:39.303Z,62.40
2023-05-17T11:49:10.990Z,58.30
2023-05-17T11:51:38.921Z,64.90
2023-05-17T11:54:11.383Z,74.00
2023-05-17T11:56:43.683Z,73.80
2023-05-17T11:59:11.223Z,76.40
2023-05-17T12:01:49.252Z,65.00
2023-05-17T12:04:27.534Z,68.10
2023-05-17T12:06:55.552Z,70.50
2023-05-17T12:09:23.519Z,56.60
2023-05-17T12:11:50.755Z,69.20
2023-05-17T12:14:18.586Z,66.60
2023-05-17T12:16:56.446Z,76.90
2023-05-17T12:19:26.301Z,71.70
2023-05-17T12:21:53.460Z,66.30
2023-05-17T12:24:20.824Z,75.90
2023-05-17T12:26:48.561Z,71.00
2023-05-17T12:29:22.126Z,71.80
2023-05-17T12:31:52.062Z,62.60
2023-05-17T12:34:19.562Z,66.30
2023-05-17T12:36:47.242Z,70.90
2023-05-17T12:39:15.754Z,58.00
2023-05-17T12:41:43.397Z,71.30
2023-05-17T12:44:15.835Z,76.60
2023-05-17T12:46:45.370Z,74.00
2023-05-17T12:49:12.717Z,64.80
2023-05-17T12:51:45.230Z,64.30
2023-05-17T12:54:30.567Z,58.80
2023-05-17T12:56:57.860Z,66.00
2023-05-17T12:59:26.133Z,76.00
2023-05-17T13:01:56.768Z,61.80
2023-05-17T13:04:32.804Z,76.30
2023-05-17T13:07:02.659Z,76.60
2023-05-17T13:09:31.218Z,78.00
2023-05-17T13:12:00.179Z,67.50
2023-05-17T13:14:54.946Z,81.60
2023-05-17T13:17:27.392Z,63.70
2023-05-17T13:19:58.029Z,63.00
2023-05-17T13:22:25.764Z,72.90
2023-05-17T13:24:53.232Z,77.90
2023-05-17T13:27:20.798Z,63.30
2023-05-17T13:29:47.780Z,70.00
2023-05-17T13:32:17.239Z,74.30
2023-05-17T13:34:44.257Z,73.80
2023-05-17T13:37:12.712Z,65.80
2023-05-17T13:39:41.427Z,72.10
2023-05-17T13:42:08.925Z,68.70
2023-05-17T13:44:36.008Z,74.20
2023-05-17T13:47:03.150Z,74.50
2023-05-17T13:49:30.195Z,73.90
2023-05-17T13:51:57.853Z,71.90
2023-05-17T13:54:27.447Z,78.00
2023-05-17T13:56:55.712Z,81.20
2023-05-17T13:59:22.803Z,66.20
2023-05-17T14:01:49.846Z,73.70
2023-05-17T14:04:17.256Z,78.30
2023-05-17T14:06:44.877Z,73.10
2023-05-17T14:09:13.670Z,84.20
2023-05-17T14:11:41.072Z,85.90
2023-05-17T14:14:08.129Z,82.20
2023-05-17T14:16:35.189Z,78.10
2023-05-17T14:19:04.423Z,79.00
2023-05-17T14:21:32.092Z,75.70
2023-05-17T14:23:59.168Z,75.90
2023-05-17T14:26:26.839Z,66.60
2023-05-17T14:28:54.092Z,79.00
2023-05-17T14:31:21.230Z,81.50
2023-05-17T14:33:48.478Z,83.80
2023-05-17T14:36:15.971Z,75.30
2023-05-17T14:38:43.041Z,76.70
2023-05-17T14:41:10.110Z,82.40
2023-05-17T14:43:37.250Z,76.00
2023-05-17T14:46:04.548Z,71.70
2023-05-17T14:48:31.956Z,61.50
2023-05-17T14:50:59.016Z,66.00
2023-05-17T14:53:36.806Z,68.00
2023-05-17T14:56:03.873Z,56.70
2023-05-17T14:58:30.933Z,66.10
2023-05-17T15:01:04.954Z,65.10
2023-05-17T15:03:33.480Z,59.00
2023-05-17T15:06:02.875Z,65.90
2023-05-17T15:08:32.449Z,56.00
2023-05-17T15:10:59.428Z,73.70
2023-05-17T15:13:26.843Z,75.80
2023-05-17T15:15:54.041Z,81.10
2023-05-17T15:18:21.388Z,74.80
2023-05-17T15:20:48.702Z,72.30
2023-05-17T15:23:16.056Z,79.60
2023-05-17T15:25:43.201Z,78.80
2023-05-17T15:28:10.222Z,75.60
2023-05-17T15:30:37.382Z,72.90
2023-05-17T15:33:04.745Z,78.20
2023-05-17T15:35:31.936Z,85.60
2023-05-17T15:38:02.075Z,78.90
2023-05-17T15:40:29.100Z,74.40
2023-05-17T15:42:56.418Z,73.50
2023-05-17T15:45:24.014Z,80.20
2023-05-17T15:47:51.116Z,83.80
2023-05-17T15:50:18.285Z,84.10
2023-05-17T15:52:47.489Z,86.60
2023-05-17T15:55:14.700Z,74.70
2023-05-17T15:57:42.443Z,83.30
2023-05-17T16:00:10.479Z,86.80
2023-05-17T16:02:40.324Z,81.00
2023-05-17T16:05:08.094Z,86.20
2023-05-17T16:07:35.220Z,80.20
2023-05-17T16:10:02.261Z,81.20
2023-05-17T16:12:29.360Z,82.30
2023-05-17T16:14:56.394Z,79.80
2023-05-17T16:17:23.423Z,72.50
2023-05-17T16:19:50.547Z,78.10
2023-05-17T16:22:17.592Z,80.10
2023-05-17T16:24:44.667Z,84.20
2023-05-17T16:27:11.669Z,82.70
2023-05-17T16:29:40.444Z,82.10
2023-05-17T16:32:08.385Z,84.40
2023-05-17T16:34:38.192Z,81.20
2023-05-17T16:37:07.287Z,87.00
2023-05-17T16:39:34.296Z,88.90
2023-05-17T16:42:01.828Z,90.40
2023-05-17T16:44:28.864Z,88.90
2023-05-17T16:46:55.990Z,77.60
2023-05-17T16:49:23.039Z,84.80
2023-05-17T16:51:52.055Z,87.70
2023-05-17T16:54:19.094Z,88.60
2023-05-17T16:56:46.145Z,84.20
2023-05-17T16:59:13.226Z,80.90
2023-05-17T17:01:40.310Z,70.70
2023-05-17T17:04:07.441Z,87.30
2023-05-17T17:06:34.697Z,83.60
2023-05-17T17:09:08.188Z,90.00
2023-05-17T17:11:37.776Z,90.50
2023-05-17T17:14:05.720Z,89.40
2023-05-17T17:16:33.303Z,92.60
2023-05-17T17:19:00.462Z,92.60
2023-05-17T17:21:27.543Z,95.20
2023-05-17T17:23:54.586Z,93.60
2023-05-17T17:26:22.163Z,90.30
2023-05-17T17:28:49.809Z,92.90
2023-05-17T17:31:20.015Z,89.90
2023-05-17T17:33:47.946Z,89.90
2023-05-17T17:36:15.732Z,97.10
2023-05-17T17:38:43.743Z,98.10
2023-05-17T17:41:11.637Z,99.90
2023-05-17T17:43:38.839Z,99.90
2023-05-17T17:46:05.889Z,99.90
2023-05-17T17:48:32.921Z,99.90
2023-05-17T17:51:00.061Z,99.90
2023-05-17T17:53:27.725Z,99.90
2023-05-17T17:55:55.036Z,99.90
2023-05-17T17:58:22.125Z,99.90
2023-05-17T18:00:49.225Z,99.90
2023-05-17T18:03:16.459Z,99.90
2023-05-17T18:05:43.630Z,99.90
2023-05-17T18:08:10.650Z,99.90
2023-05-17T18:10:37.730Z,99.90
2023-05-17T18:13:05.112Z,99.90
2023-05-17T18:15:32.242Z,99.90
2023-05-17T18:17:59.267Z,99.90
2023-05-17T18:20:26.636Z,99.90
2023-05-17T18:22:54.128Z,99.90
2023-05-17T18:25:21.682Z,99.90
2023-05-17T18:27:48.815Z,99.90
2023-05-17T18:30:17.361Z,99.90
2023-05-17T18:32:44.934Z,99.90
2023-05-17T18:35:12.152Z,99.90
2023-05-17T18:37:39.419Z,99.90
2023-05-17T18:40:07.292Z,99.90
2023-05-17T18:42:34.303Z,99.90
2023-05-17T18:45:01.328Z,99.90
2023-05-17T18:47:28.673Z,99.90
2023-05-17T18:49:55.931Z,99.90
2023-05-17T18:52:22.982Z,99.90
2023-05-17T18:54:50.361Z,99.90
2023-05-17T18:57:17.416Z,99.90
2023-05-17T18:59:44.551Z,99.90
2023-05-17T19:02:11.704Z,99.90
2023-05-17T19:04:38.694Z,99.90
2023-05-17T19:07:05.957Z,99.90
2023-05-17T19:09:34.683Z,99.90
2023-05-17T19:12:01.940Z,99.90
2023-05-17T19:14:29.164Z,99.90
2023-05-17T19:16:57.134Z,99.90
2023-05-17T19:19:25.600Z,99.90
2023-05-17T19:21:52.853Z,99.90
2023-05-17T19:24:19.957Z,99.90
2023-05-17T19:26:46.992Z,99.90
2023-05-17T19:29:14.030Z,99.90
2023-05-17T19:31:41.195Z,99.90
2023-05-17T19:34:08.267Z,99.90
2023-05-17T19:36:35.397Z,99.90
2023-05-17T19:39:02.691Z,99.90
2023-05-17T19:41:29.847Z,99.90
2023-05-17T19:43:56.830Z,99.90
2023-05-17T19:46:23.930Z,99.90
2023-05-17T19:48:51.113Z,99.90
2023-05-17T19:51:18.285Z,99.90
2023-05-17T19:53:53.450Z,99.90
2023-05-17T19:59:31.786Z,99.90
2023-05-17T20:01:58.865Z,99.90
2023-05-17T20:04:25.954Z,99.90
2023-05-17T20:06:53.106Z,99.90
2023-05-17T20:09:20.228Z,99.90
2023-05-17T20:11:47.428Z,99.90
2023-05-17T20:14:16.354Z,99.90
2023-05-17T20:16:43.450Z,99.90
2023-05-17T20:19:11.217Z,99.90
2023-05-17T20:21:38.475Z,99.90
2023-05-17T20:24:33.175Z,99.90
2023-05-17T20:27:00.307Z,99.90
2023-05-17T20:29:27.350Z,99.90
2023-05-17T20:31:54.696Z,99.90
2023-05-17T20:34:21.931Z,99.90
2023-05-17T20:36:48.918Z,99.90
2023-05-17T20:39:15.954Z,99.90
2023-05-17T20:41:43.033Z,99.90
2023-05-17T20:44:10.050Z,99.90
2023-05-17T20:46:37.131Z,99.90
2023-05-17T20:49:10.081Z,99.90
2023-05-17T20:51:37.202Z,99.90
2023-05-17T20:54:06.207Z,99.90
2023-05-17T20:56:35.189Z,99.90
2023-05-17T20:59:02.211Z,99.90
2023-05-17T21:01:29.602Z,99.90
2023-05-17T21:03:58.390Z,99.90
2023-05-17T21:06:27.907Z,99.90
2023-05-17T21:08:55.981Z,99.90
2023-05-17T21:11:23.127Z,99.90
2023-05-17T21:13:50.853Z,99.90
2023-05-17T21:16:18.457Z,99.90
2023-05-17T21:18:45.653Z,99.90
2023-05-17T21:21:13.126Z,99.90
2023-05-17T21:23:40.234Z,99.90
2023-05-17T21:26:07.929Z,99.90
2023-05-17T21:28:35.577Z,99.90
2023-05-17T21:31:03.731Z,99.90
2023-05-17T21:33:32.544Z,99.90
2023-05-17T21:35:59.534Z,99.90
2023-05-17T21:38:26.605Z,99.90
2023-05-17T21:40:55.626Z,99.90
2023-05-17T21:43:22.698Z,99.90
2023-05-17T21:45:51.648Z,99.90
2023-05-17T21:48:18.730Z,99.90
2023-05-17T21:50:46.027Z,99.90
2023-05-17T21:53:14.017Z,99.90
2023-05-17T21:55:56.187Z,99.90
2023-05-17T21:58:28.126Z,99.90
2023-05-17T22:00:55.293Z,99.90
2023-05-17T22:03:22.509Z,99.90
2023-05-17T22:05:49.626Z,99.90
2023-05-17T22:08:17.169Z,99.90
2023-05-17T22:10:44.315Z,99.90
2023-05-17T22:13:12.628Z,99.90
2023-05-17T22:15:41.765Z,99.90
2023-05-17T22:18:09.249Z,99.90
2023-05-17T22:20:36.582Z,99.90
2023-05-17T22:23:04.495Z,99.90
2023-05-17T22:25:31.589Z,99.90
2023-05-17T22:27:58.629Z,99.90
2023-05-17T22:30:26.211Z,99.90
2023-05-17T22:32:59.214Z,99.90
2023-05-17T22:35:26.287Z,99.90
2023-05-17T22:37:53.681Z,99.90
2023-05-17T22:40:21.714Z,99.90
2023-05-17T22:42:48.804Z,99.90
2023-05-17T22:45:15.848Z,99.90
2023-05-17T22:47:43.016Z,99.90
2023-05-17T22:50:14.637Z,99.90
2023-05-17T22:52:42.868Z,99.90
2023-05-17T22:55:11.222Z,99.90
2023-05-17T22:57:38.583Z,99.90
2023-05-17T23:00:06.632Z,99.90
2023-05-17T23:02:33.665Z,99.90
2023-05-17T23:05:03.880Z,99.90
2023-05-17T23:07:37.218Z,99.90
2023-05-17T23:10:10.173Z,99.90
2023-05-17T23:12:37.665Z,99.90
2023-05-17T23:15:06.238Z,99.90
2023-05-17T23:17:33.584Z,99.90
2023-05-17T23:20:02.201Z,99.90
2023-05-17T23:22:31.699Z,99.90
2023-05-17T23:24:59.066Z,99.90
2023-05-17T23:27:27.875Z,99.90
2023-05-17T23:29:55.368Z,99.90
2023-05-17T23:32:23.216Z,99.90
2023-05-17T23:34:50.920Z,99.90
2023-05-17T23:37:18.038Z,99.90
2023-05-17T23:39:45.122Z,99.90
2023-05-17T23:42:13.234Z,99.90
2023-05-17T23:44:43.350Z,99.90
2023-05-17T23:47:10.618Z,99.90
2023-05-17T23:49:37.735Z,99.90
2023-05-17T23:52:08.656Z,99.90
2023-05-17T23:54:35.673Z,99.90
2023-05-17T23:57:02.742Z,99.90
2023-05-17T23:59:29.780Z,99.90
